createdAt,value
2019-04-26T00:00:11.960Z,61.91
2019-04-26T00:00:50.195Z,61.91
2019-04-26T00:01:27.081Z,62.03
2019-04-26T00:02:12.278Z,62.33
2019-04-26T00:02:53.022Z,62.45
2019-04-26T00:03:34.062Z,62.46
2019-04-26T00:04:10.830Z,62.45
2019-04-26T00:04:47.999Z,62.42
2019-04-26T00:05:33.987Z,62.61
2019-04-26T00:06:01.207Z,62.72
2019-04-26T00:06:36.772Z,62.78
2019-04-26T00:07:12.538Z,62.70
2019-04-26T00:07:49.515Z,62.77
2019-04-26T00:08:25.204Z,62.25
2019-04-26T00:09:11.794Z,62.25
2019-04-26T00:09:47.226Z,62.49
2019-04-26T00:10:44.905Z,62.60
2019-04-26T00:11:27.203Z,62.81
2019-04-26T00:12:22.519Z,63.01
2019-04-26T00:13:20.301Z,62.78
2019-04-26T00:14:27.205Z,62.70
2019-04-26T00:15:24.936Z,63.13
2019-04-26T00:16:22.963Z,63.21
2019-04-26T00:17:26.700Z,63.28
2019-04-26T00:18:02.865Z,63.56
2019-04-26T00:18:39.551Z,63.25
2019-04-26T00:19:15.758Z,63.16
2019-04-26T00:19:51.522Z,63.48
2019-04-26T00:20:27.591Z,63.68
2019-04-26T00:21:03.052Z,63.59
2019-04-26T00:21:38.515Z,63.57
2019-04-26T00:22:15.285Z,63.60
2019-04-26T00:22:51.251Z,63.69
2019-04-26T00:23:26.787Z,63.98
2019-04-26T00:24:02.874Z,63.82
2019-04-26T00:24:38.682Z,64.00
2019-04-26T00:25:14.554Z,64.12
2019-04-26T00:25:50.858Z,64.32
2019-04-26T00:26:26.865Z,64.36
2019-04-26T00:27:02.711Z,64.39
2019-04-26T00:27:38.579Z,64.37
2019-04-26T00:28:14.647Z,64.48
2019-04-26T00:28:50.190Z,64.63
2019-04-26T00:29:26.196Z,64.76
2019-04-26T00:30:02.279Z,64.65
2019-04-26T00:30:38.533Z,64.51
2019-04-26T00:31:15.136Z,64.59
2019-04-26T00:31:50.726Z,64.50
2019-04-26T00:32:26.782Z,64.56
2019-04-26T00:33:02.624Z,64.54
2019-04-26T00:33:38.011Z,64.48
2019-04-26T00:34:13.925Z,64.46
2019-04-26T00:34:49.821Z,64.45
2019-04-26T00:35:25.737Z,64.43
2019-04-26T00:36:01.501Z,64.36
2019-04-26T00:36:36.978Z,64.20
2019-04-26T00:37:14.067Z,64.15
2019-04-26T00:37:49.732Z,64.43
2019-04-26T00:38:25.174Z,64.46
2019-04-26T00:39:00.970Z,64.81
2019-04-26T00:39:36.440Z,64.77
2019-04-26T00:40:13.335Z,64.87
2019-04-26T00:40:51.440Z,65.21
2019-04-26T00:41:28.077Z,65.40
2019-04-26T00:42:04.821Z,65.39
2019-04-26T00:42:40.398Z,65.28
2019-04-26T00:43:16.423Z,65.31
2019-04-26T00:43:53.143Z,65.22
2019-04-26T00:44:29.513Z,65.03
2019-04-26T00:45:05.019Z,64.85
2019-04-26T00:45:41.660Z,64.93
2019-04-26T00:46:19.286Z,65.13
2019-04-26T00:46:56.767Z,65.04
2019-04-26T00:47:33.776Z,64.86
2019-04-26T00:48:12.556Z,65.04
2019-04-26T00:48:52.376Z,65.24
2019-04-26T00:49:29.804Z,65.33
2019-04-26T00:50:07.942Z,65.52
2019-04-26T00:50:45.342Z,65.67
2019-04-26T00:51:21.720Z,65.57
2019-04-26T00:51:57.577Z,65.78
2019-04-26T00:52:33.529Z,65.80
2019-04-26T00:53:09.671Z,65.77
2019-04-26T00:53:46.679Z,65.62
2019-04-26T00:54:24.351Z,65.96
2019-04-26T00:55:01.926Z,66.05
2019-04-26T00:55:38.271Z,65.78
2019-04-26T00:56:14.681Z,65.97
2019-04-26T00:56:51.648Z,65.86
2019-04-26T00:57:28.008Z,65.90
2019-04-26T00:58:05.209Z,65.80
2019-04-26T00:58:41.238Z,65.82
2019-04-26T00:59:18.334Z,66.02
2019-04-26T00:59:54.782Z,66.17
2019-04-26T01:00:30.246Z,66.15
2019-04-26T01:01:06.368Z,66.33
2019-04-26T01:01:46.089Z,66.69
2019-04-26T01:02:30.463Z,66.73
2019-04-26T01:03:06.012Z,67.05
2019-04-26T01:03:41.976Z,66.98
2019-04-26T01:04:18.779Z,66.85
2019-04-26T01:04:54.300Z,66.56
2019-04-26T01:05:31.689Z,66.46
2019-04-26T01:06:09.599Z,66.65
2019-04-26T01:06:46.729Z,66.62
2019-04-26T01:07:23.213Z,66.87
2019-04-26T01:07:59.322Z,66.70
2019-04-26T01:08:34.777Z,66.74
2019-04-26T01:09:10.484Z,66.84
2019-04-26T01:09:45.953Z,66.57
2019-04-26T01:10:21.756Z,66.53
2019-04-26T01:10:57.938Z,66.75
2019-04-26T01:11:33.717Z,66.71
2019-04-26T01:12:09.617Z,66.67
2019-04-26T01:12:45.393Z,66.82
2019-04-26T01:13:21.957Z,66.84
2019-04-26T01:13:58.124Z,66.91
2019-04-26T01:14:33.563Z,67.07
2019-04-26T01:15:09.032Z,67.07
2019-04-26T01:15:45.096Z,67.09
2019-04-26T01:16:20.525Z,67.24
2019-04-26T01:16:56.066Z,67.26
2019-04-26T01:17:32.212Z,67.21
2019-04-26T01:18:08.054Z,67.47
2019-04-26T01:18:45.153Z,67.46
2019-04-26T01:19:22.473Z,67.37
2019-04-26T01:20:00.030Z,67.35
2019-04-26T01:20:36.700Z,67.09
2019-04-26T01:21:17.173Z,67.13
2019-04-26T01:21:57.871Z,67.11
2019-04-26T01:22:36.322Z,66.94
2019-04-26T01:23:14.743Z,66.91
2019-04-26T01:23:54.036Z,66.13
2019-04-26T01:24:32.809Z,66.13
2019-04-26T01:25:09.840Z,66.52
2019-04-26T01:26:01.206Z,66.54
2019-04-26T01:26:38.295Z,66.69
2019-04-26T01:27:17.126Z,66.75
2019-04-26T01:27:54.770Z,66.74
2019-04-26T01:28:42.564Z,66.81
2019-04-26T01:29:19.690Z,66.97
2019-04-26T01:29:58.541Z,66.77
2019-04-26T01:30:35.741Z,66.74
2019-04-26T01:31:12.559Z,66.81
2019-04-26T01:31:59.364Z,66.81
2019-04-26T01:32:38.255Z,66.86
2019-04-26T01:33:14.421Z,66.90
2019-04-26T01:33:50.573Z,66.83
2019-04-26T01:34:26.309Z,66.55
2019-04-26T01:35:01.944Z,66.55
2019-04-26T01:35:38.002Z,66.73
2019-04-26T01:36:14.461Z,66.80
2019-04-26T01:36:53.034Z,66.58
2019-04-26T01:37:30.963Z,66.61
2019-04-26T01:38:08.469Z,66.79
2019-04-26T01:38:46.613Z,66.83
2019-04-26T01:39:23.724Z,66.91
2019-04-26T01:40:05.550Z,67.13
2019-04-26T01:40:42.038Z,66.81
2019-04-26T01:41:26.161Z,66.67
2019-04-26T01:42:20.973Z,66.71
2019-04-26T01:43:08.815Z,66.57
2019-04-26T01:44:21.745Z,66.55
2019-04-26T01:45:15.155Z,66.85
2019-04-26T01:46:00.195Z,66.59
2019-04-26T01:46:41.578Z,66.68
2019-04-26T01:47:17.962Z,66.71
2019-04-26T01:47:56.375Z,66.86
2019-04-26T01:48:46.227Z,66.95
2019-04-26T01:49:24.221Z,66.90
2019-04-26T01:50:00.171Z,66.93
2019-04-26T01:50:36.846Z,66.74
2019-04-26T01:51:16.729Z,66.59
2019-04-26T01:52:07.166Z,66.63
2019-04-26T01:52:45.021Z,66.75
2019-04-26T01:53:21.138Z,66.93
2019-04-26T01:53:57.171Z,66.73
2019-04-26T01:54:38.216Z,66.81
2019-04-26T01:55:14.597Z,66.92
2019-04-26T01:55:50.480Z,66.93
2019-04-26T01:56:31.421Z,66.92
2019-04-26T01:57:07.838Z,66.86
2019-04-26T01:57:44.146Z,66.65
2019-04-26T01:58:21.831Z,66.78
2019-04-26T01:58:57.004Z,66.85
2019-04-26T01:59:37.083Z,66.74
2019-04-26T02:00:24.061Z,66.82
2019-04-26T02:01:17.054Z,66.86
2019-04-26T02:02:17.912Z,66.88
2019-04-26T02:02:59.932Z,66.93
2019-04-26T02:03:35.381Z,67.11
2019-04-26T02:04:11.030Z,67.02
2019-04-26T02:04:48.745Z,67.31
2019-04-26T02:05:26.020Z,67.62
2019-04-26T02:06:02.044Z,67.77
2019-04-26T02:06:38.589Z,67.70
2019-04-26T02:07:16.861Z,67.90
2019-04-26T02:07:52.719Z,67.97
2019-04-26T02:08:28.307Z,67.58
2019-04-26T02:09:05.350Z,67.26
2019-04-26T02:09:40.794Z,67.47
2019-04-26T02:10:23.375Z,67.70
2019-04-26T02:10:58.663Z,67.79
2019-04-26T02:11:34.134Z,67.80
2019-04-26T02:12:09.785Z,67.58
2019-04-26T02:12:48.787Z,67.87
2019-04-26T02:13:25.368Z,67.58
2019-04-26T02:14:01.321Z,67.66
2019-04-26T02:14:36.876Z,67.66
2019-04-26T02:15:12.674Z,67.43
2019-04-26T02:15:48.374Z,67.55
2019-04-26T02:16:25.050Z,67.67
2019-04-26T02:17:02.981Z,67.84
2019-04-26T02:17:39.189Z,67.94
2019-04-26T02:18:15.898Z,68.01
2019-04-26T02:18:52.122Z,67.94
2019-04-26T02:19:28.010Z,68.08
2019-04-26T02:20:05.113Z,68.09
2019-04-26T02:21:05.466Z,68.14
2019-04-26T02:21:51.775Z,68.36
2019-04-26T02:22:34.185Z,68.43
2019-04-26T02:23:17.356Z,68.25
2019-04-26T02:24:23.905Z,68.10
2019-04-26T02:25:00.837Z,67.90
2019-04-26T02:25:36.517Z,67.66
2019-04-26T02:26:32.583Z,67.95
2019-04-26T02:27:17.617Z,68.09
2019-04-26T02:27:53.066Z,67.75
2019-04-26T02:28:28.550Z,67.55
2019-04-26T02:29:07.449Z,67.99
2019-04-26T02:29:43.656Z,67.99
2019-04-26T02:30:19.252Z,68.42
2019-04-26T02:30:55.691Z,68.66
2019-04-26T02:31:33.379Z,68.85
2019-04-26T02:32:09.426Z,68.89
2019-04-26T02:32:44.848Z,68.82
2019-04-26T02:33:21.187Z,69.01
2019-04-26T02:33:57.055Z,69.01
2019-04-26T02:34:37.165Z,68.60
2019-04-26T02:35:12.267Z,68.47
2019-04-26T02:35:50.612Z,68.55
2019-04-26T02:36:46.423Z,68.53
2019-04-26T02:37:06.806Z,68.45
2019-04-26T02:37:42.688Z,68.68
2019-04-26T02:38:18.847Z,68.39
2019-04-26T02:38:56.200Z,68.41
2019-04-26T02:39:38.977Z,68.42
2019-04-26T02:40:17.130Z,68.39
2019-04-26T02:40:53.575Z,68.39
2019-04-26T02:41:31.679Z,68.43
2019-04-26T02:42:19.652Z,68.60
2019-04-26T02:42:56.650Z,68.48
2019-04-26T02:43:33.887Z,68.09
2019-04-26T02:44:12.617Z,67.93
2019-04-26T02:45:13.450Z,68.17
2019-04-26T02:46:15.804Z,68.52
2019-04-26T02:47:19.257Z,68.51
2019-04-26T02:48:14.506Z,67.98
2019-04-26T02:49:22.508Z,67.98
2019-04-26T02:50:01.670Z,68.73
2019-04-26T02:50:44.031Z,68.73
2019-04-26T02:51:24.460Z,68.99
2019-04-26T02:52:06.549Z,68.68
2019-04-26T02:52:57.475Z,68.63
2019-04-26T02:53:53.085Z,68.38
2019-04-26T02:54:46.249Z,68.28
2019-04-26T02:56:05.861Z,68.70
2019-04-26T02:56:44.117Z,68.68
2019-04-26T02:57:30.997Z,68.35
2019-04-26T02:58:06.463Z,69.01
2019-04-26T02:59:02.491Z,68.86
2019-04-26T02:59:44.201Z,68.86
2019-04-26T03:00:20.853Z,68.80
2019-04-26T03:00:58.351Z,68.71
2019-04-26T03:01:35.978Z,68.86
2019-04-26T03:02:22.059Z,68.64
2019-04-26T03:03:04.213Z,68.99
2019-04-26T03:03:39.849Z,68.65
2019-04-26T03:04:15.463Z,68.60
2019-04-26T03:04:55.689Z,68.94
2019-04-26T03:05:35.744Z,68.58
2019-04-26T03:06:11.457Z,68.58
2019-04-26T03:07:02.484Z,68.41
2019-04-26T03:07:39.117Z,68.41
2019-04-26T03:08:17.188Z,68.75
2019-04-26T03:08:54.668Z,68.72
2019-04-26T03:09:34.724Z,68.64
2019-04-26T03:10:10.977Z,68.85
2019-04-26T03:11:07.196Z,68.58
2019-04-26T03:11:45.556Z,68.90
2019-04-26T03:12:24.614Z,68.90
2019-04-26T03:13:04.102Z,69.14
2019-04-26T03:14:01.000Z,69.39
2019-04-26T03:14:49.557Z,69.17
2019-04-26T03:15:42.660Z,69.18
2019-04-26T03:16:31.407Z,69.03
2019-04-26T03:17:16.446Z,69.26
2019-04-26T03:17:59.972Z,68.96
2019-04-26T03:19:08.104Z,68.96
2019-04-26T03:19:52.646Z,68.29
2019-04-26T03:20:42.149Z,68.29
2019-04-26T03:21:25.757Z,69.04
2019-04-26T03:22:10.142Z,68.83
2019-04-26T03:23:15.159Z,68.83
2019-04-26T03:24:00.994Z,68.96
2019-04-26T03:24:54.374Z,68.56
2019-04-26T03:26:09.304Z,68.56
2019-04-26T03:27:10.777Z,68.66
2019-04-26T03:27:57.571Z,68.57
2019-04-26T03:28:43.787Z,68.48
2019-04-26T03:29:51.568Z,68.77
2019-04-26T03:30:53.126Z,68.84
2019-04-26T03:32:24.554Z,69.37
2019-04-26T03:33:42.131Z,69.25
2019-04-26T03:34:25.194Z,68.88
2019-04-26T03:35:28.922Z,69.03
2019-04-26T03:36:27.652Z,69.10
2019-04-26T03:37:39.828Z,69.18
2019-04-26T03:38:28.685Z,69.16
2019-04-26T03:39:21.920Z,69.29
2019-04-26T03:40:29.122Z,69.38
2019-04-26T03:41:12.928Z,69.18
2019-04-26T03:42:14.872Z,68.93
2019-04-26T03:43:12.889Z,68.99
2019-04-26T03:44:12.594Z,68.79
2019-04-26T03:45:01.134Z,69.00
2019-04-26T03:45:57.416Z,68.95
2019-04-26T03:46:41.236Z,69.04
2019-04-26T03:47:20.749Z,69.23
2019-04-26T03:48:14.393Z,69.32
2019-04-26T03:49:14.056Z,69.31
2019-04-26T03:50:19.269Z,69.19
2019-04-26T03:51:07.082Z,68.95
2019-04-26T03:52:15.404Z,68.66
2019-04-26T03:53:35.545Z,68.55
2019-04-26T03:54:17.125Z,68.44
2019-04-26T03:54:56.505Z,68.30
2019-04-26T03:56:05.080Z,68.33
2019-04-26T03:57:18.630Z,68.67
2019-04-26T03:58:00.716Z,68.55
2019-04-26T03:59:06.099Z,68.64
2019-04-26T04:00:43.025Z,68.64
2019-04-26T04:01:20.634Z,69.18
2019-04-26T04:02:24.516Z,68.40
2019-04-26T04:03:28.238Z,68.39
2019-04-26T04:04:22.720Z,68.21
2019-04-26T04:05:15.851Z,68.19
2019-04-26T04:05:54.525Z,68.57
2019-04-26T04:06:48.718Z,69.10
2019-04-26T04:07:13.387Z,69.15
2019-04-26T04:07:51.761Z,69.17
2019-04-26T04:08:39.762Z,69.05
2019-04-26T04:09:18.008Z,68.89
2019-04-26T04:09:59.681Z,68.88
2019-04-26T04:10:46.028Z,68.93
2019-04-26T04:11:26.125Z,68.79
2019-04-26T04:12:11.513Z,68.60
2019-04-26T04:13:18.581Z,68.38
2019-04-26T04:14:03.551Z,68.02
2019-04-26T04:14:54.203Z,67.74
2019-04-26T04:15:38.571Z,67.38
2019-04-26T04:16:31.960Z,67.70
2019-04-26T04:17:21.243Z,68.20
2019-04-26T04:18:05.183Z,68.26
2019-04-26T04:18:45.430Z,68.81
2019-04-26T04:20:05.576Z,69.24
2019-04-26T04:21:38.643Z,69.23
2019-04-26T04:22:16.530Z,69.00
2019-04-26T04:23:09.074Z,68.75
2019-04-26T04:24:05.291Z,68.75
2019-04-26T04:24:52.817Z,68.74
2019-04-26T04:25:34.062Z,68.61
2019-04-26T04:26:11.021Z,68.42
2019-04-26T04:27:11.241Z,69.51
2019-04-26T04:27:52.688Z,69.61
2019-04-26T04:29:46.265Z,69.71
2019-04-26T04:30:29.751Z,69.30
2019-04-26T04:31:18.289Z,70.04
2019-04-26T04:31:57.412Z,70.20
2019-04-26T04:33:00.102Z,69.70
2019-04-26T04:33:56.376Z,69.49
2019-04-26T04:34:40.118Z,69.21
2019-04-26T04:35:18.883Z,69.50
2019-04-26T04:36:00.319Z,69.66
2019-04-26T04:36:43.893Z,69.66
2019-04-26T04:37:20.824Z,69.91
2019-04-26T04:38:09.164Z,70.52
2019-04-26T04:39:12.166Z,70.61
2019-04-26T04:40:49.082Z,70.65
2019-04-26T04:41:41.213Z,70.65
2019-04-26T04:42:36.654Z,70.37
2019-04-26T04:43:26.824Z,70.49
2019-04-26T04:45:01.668Z,70.56
2019-04-26T04:46:25.620Z,71.06
2019-04-26T04:47:33.213Z,70.97
2019-04-26T04:48:24.716Z,71.15
2019-04-26T04:49:30.485Z,71.40
2019-04-26T04:50:18.481Z,71.76
2019-04-26T04:51:26.738Z,71.58
2019-04-26T04:52:35.529Z,71.72
2019-04-26T04:53:36.269Z,72.78
2019-04-26T04:54:19.559Z,72.91
2019-04-26T04:55:07.224Z,73.60
2019-04-26T04:55:54.276Z,73.64
2019-04-26T04:57:30.004Z,73.95
2019-04-26T04:58:22.868Z,73.71
2019-04-26T04:59:02.362Z,74.85
2019-04-26T04:59:53.951Z,75.51
2019-04-26T05:01:18.582Z,75.55
2019-04-26T05:02:21.174Z,75.55
2019-04-26T05:03:25.559Z,75.34
2019-04-26T05:04:21.032Z,75.21
2019-04-26T05:05:18.380Z,75.21
2019-04-26T05:06:29.275Z,75.26
2019-04-26T05:07:32.265Z,75.48
2019-04-26T05:08:56.415Z,76.23
2019-04-26T05:09:39.457Z,75.29
2019-04-26T05:10:41.624Z,75.73
2019-04-26T05:11:23.723Z,76.31
2019-04-26T05:12:27.137Z,76.09
2019-04-26T05:13:15.728Z,76.65
2019-04-26T05:14:09.993Z,76.81
2019-04-26T05:14:59.152Z,76.79
2019-04-26T05:16:20.502Z,77.10
2019-04-26T05:17:22.768Z,76.69
2019-04-26T05:18:28.403Z,76.90
2019-04-26T05:19:44.238Z,76.57
2019-04-26T05:20:28.773Z,77.19
2019-04-26T05:21:26.148Z,76.54
2019-04-26T05:22:31.210Z,77.55
2019-04-26T05:23:58.770Z,77.55
2019-04-26T05:25:02.111Z,76.75
2019-04-26T05:26:36.968Z,76.61
2019-04-26T05:27:49.173Z,76.22
2019-04-26T05:28:41.194Z,76.75
2019-04-26T05:29:58.034Z,76.97
2019-04-26T05:31:12.963Z,77.00
2019-04-26T05:32:01.350Z,77.15
2019-04-26T05:33:05.324Z,76.92
2019-04-26T05:34:21.638Z,77.21
2019-04-26T05:35:11.877Z,77.20
2019-04-26T05:36:01.069Z,76.44
2019-04-26T05:37:02.094Z,76.48
2019-04-26T05:38:18.620Z,76.35
2019-04-26T05:39:13.070Z,75.88
2019-04-26T05:40:07.507Z,76.44
2019-04-26T05:41:27.980Z,76.73
2019-04-26T05:42:49.763Z,76.73
2019-04-26T05:43:56.393Z,77.20
2019-04-26T05:45:18.814Z,77.66
2019-04-26T05:46:24.591Z,77.40
2019-04-26T05:47:32.857Z,77.43
2019-04-26T05:48:42.211Z,77.54
2019-04-26T05:49:58.983Z,77.53
2019-04-26T05:51:27.327Z,77.34
2019-04-26T05:52:32.988Z,77.94
2019-04-26T05:54:16.041Z,78.02
2019-04-26T05:56:00.640Z,78.25
2019-04-26T05:57:02.654Z,78.53
2019-04-26T05:57:56.377Z,78.56
2019-04-26T05:59:11.462Z,78.32
2019-04-26T06:00:34.633Z,78.80
2019-04-26T06:02:07.212Z,79.03
2019-04-26T06:03:16.314Z,79.45
2019-04-26T06:04:28.770Z,79.81
2019-04-26T06:05:43.506Z,79.96
2019-04-26T06:06:31.908Z,80.32
2019-04-26T06:07:30.822Z,80.24
2019-04-26T06:08:43.513Z,80.04
2019-04-26T06:10:03.011Z,79.86
2019-04-26T06:10:47.278Z,79.51
2019-04-26T06:11:35.040Z,79.84
2019-04-26T06:12:28.722Z,79.79
2019-04-26T06:13:38.937Z,79.87
2019-04-26T06:14:54.703Z,79.87
2019-04-26T06:16:02.432Z,79.97
2019-04-26T06:16:57.684Z,79.91
2019-04-26T06:18:16.491Z,79.79
2019-04-26T06:19:16.572Z,79.93
2019-04-26T06:20:26.456Z,79.67
2019-04-26T06:21:34.703Z,79.45
2019-04-26T06:22:19.442Z,78.78
2019-04-26T06:23:32.123Z,79.26
2019-04-26T06:24:52.626Z,79.69
2019-04-26T06:25:52.166Z,80.33
2019-04-26T06:27:24.345Z,80.42
2019-04-26T06:28:09.713Z,80.35
2019-04-26T06:29:01.049Z,80.22
2019-04-26T06:30:08.210Z,80.24
2019-04-26T06:31:02.150Z,80.41
2019-04-26T06:31:45.418Z,80.78
2019-04-26T06:32:56.562Z,80.81
2019-04-26T06:34:03.366Z,80.85
2019-04-26T06:35:35.158Z,80.45
2019-04-26T06:36:18.220Z,79.89
2019-04-26T06:37:19.500Z,79.94
2019-04-26T06:38:18.558Z,80.03
2019-04-26T06:39:18.245Z,79.96
2019-04-26T06:40:04.459Z,79.72
2019-04-26T06:41:02.676Z,80.23
2019-04-26T06:42:05.846Z,80.04
2019-04-26T06:43:35.112Z,80.19
2019-04-26T06:44:15.629Z,80.00
2019-04-26T06:45:23.625Z,80.49
2019-04-26T06:46:52.294Z,80.53
2019-04-26T06:47:41.743Z,80.95
2019-04-26T06:48:49.499Z,80.86
2019-04-26T06:49:57.624Z,81.35
2019-04-26T06:50:41.557Z,81.35
2019-04-26T06:51:24.780Z,81.67
2019-04-26T06:52:08.521Z,81.58
2019-04-26T06:52:59.560Z,81.26
2019-04-26T06:53:59.166Z,81.26
2019-04-26T06:55:08.492Z,81.33
2019-04-26T06:56:00.823Z,81.86
2019-04-26T06:57:29.260Z,81.17
2019-04-26T06:58:33.821Z,81.17
2019-04-26T06:59:36.068Z,81.67
2019-04-26T07:00:17.487Z,81.47
2019-04-26T07:01:20.913Z,80.42
2019-04-26T07:02:06.127Z,80.44
2019-04-26T07:03:15.348Z,80.75
2019-04-26T07:04:20.944Z,80.92
2019-04-26T07:05:15.473Z,80.92
2019-04-26T07:05:58.752Z,80.93
2019-04-26T07:06:41.234Z,80.78
2019-04-26T07:08:06.997Z,81.07
2019-04-26T07:08:57.512Z,81.05
2019-04-26T07:09:35.174Z,80.75
2019-04-26T07:11:09.532Z,80.92
2019-04-26T07:12:37.661Z,80.59
2019-04-26T07:13:55.863Z,80.70
2019-04-26T07:15:28.340Z,81.06
2019-04-26T07:16:31.022Z,81.28
2019-04-26T07:17:12.237Z,81.32
2019-04-26T07:18:30.964Z,81.32
2019-04-26T07:20:06.089Z,81.22
2019-04-26T07:20:58.068Z,81.66
2019-04-26T07:22:19.631Z,80.12
2019-04-26T07:23:55.405Z,79.78
2019-04-26T07:25:17.836Z,79.55
2019-04-26T07:26:29.859Z,79.45
2019-04-26T07:27:48.145Z,79.26
2019-04-26T07:28:45.619Z,78.81
2019-04-26T07:29:58.662Z,78.49
2019-04-26T07:31:08.242Z,78.78
2019-04-26T07:31:54.924Z,77.88
2019-04-26T07:32:56.879Z,77.11
2019-04-26T07:33:54.459Z,77.16
2019-04-26T07:35:02.757Z,77.56
2019-04-26T07:35:50.391Z,78.10
2019-04-26T07:37:05.469Z,78.69
2019-04-26T07:38:18.718Z,78.59
2019-04-26T07:39:27.524Z,78.57
2019-04-26T07:41:03.745Z,78.14
2019-04-26T07:42:24.666Z,78.20
2019-04-26T07:43:28.702Z,77.57
2019-04-26T07:44:55.268Z,78.92
2019-04-26T07:45:45.650Z,78.96
2019-04-26T07:47:04.144Z,77.68
2019-04-26T07:48:19.440Z,78.08
2019-04-26T07:49:32.065Z,78.53
2019-04-26T07:50:54.480Z,78.59
2019-04-26T07:52:04.405Z,77.02
2019-04-26T07:53:35.952Z,76.87
2019-04-26T07:54:52.980Z,77.78
2019-04-26T07:55:42.399Z,78.45
2019-04-26T07:56:40.401Z,77.43
2019-04-26T07:57:57.878Z,77.04
2019-04-26T07:59:28.971Z,77.48
2019-04-26T08:00:19.613Z,78.11
2019-04-26T08:01:30.669Z,78.19
2019-04-26T08:02:43.130Z,77.92
2019-04-26T08:03:38.053Z,77.11
2019-04-26T08:04:19.129Z,76.87
2019-04-26T08:05:04.274Z,77.08
2019-04-26T08:05:58.377Z,76.74
2019-04-26T08:06:51.958Z,76.76
2019-04-26T08:07:31.148Z,77.12
2019-04-26T08:08:08.687Z,77.52
2019-04-26T08:08:52.532Z,77.66
2019-04-26T08:09:31.320Z,77.01
2019-04-26T08:10:16.913Z,77.19
2019-04-26T08:11:06.620Z,77.06
2019-04-26T08:11:52.918Z,76.37
2019-04-26T08:12:32.434Z,76.67
2019-04-26T08:13:11.518Z,76.96
2019-04-26T08:14:06.091Z,77.13
2019-04-26T08:15:01.317Z,77.21
2019-04-26T08:15:50.076Z,77.46
2019-04-26T08:16:47.504Z,77.72
2019-04-26T08:17:49.271Z,77.56
2019-04-26T08:18:41.220Z,77.13
2019-04-26T08:19:20.126Z,77.17
2019-04-26T08:20:11.455Z,77.69
2019-04-26T08:20:52.524Z,77.64
2019-04-26T08:21:34.282Z,77.09
2019-04-26T08:22:20.321Z,77.09
2019-04-26T08:22:54.820Z,77.38
2019-04-26T08:23:41.389Z,77.24
2019-04-26T08:24:21.733Z,77.69
2019-04-26T08:24:58.473Z,77.23
2019-04-26T08:25:36.838Z,77.49
2019-04-26T08:26:16.191Z,77.54
2019-04-26T08:27:28.228Z,77.37
2019-04-26T08:28:08.421Z,77.44
2019-04-26T08:28:46.666Z,77.25
2019-04-26T08:29:25.290Z,77.00
2019-04-26T08:30:10.089Z,76.51
2019-04-26T08:30:47.611Z,76.51
2019-04-26T08:31:27.555Z,76.41
2019-04-26T08:32:08.887Z,76.28
2019-04-26T08:32:55.015Z,76.10
2019-04-26T08:33:40.500Z,76.74
2019-04-26T08:34:21.183Z,76.74
2019-04-26T08:35:08.217Z,76.32
2019-04-26T08:35:44.345Z,75.45
2019-04-26T08:36:26.696Z,75.23
2019-04-26T08:37:25.816Z,75.52
2019-04-26T08:38:16.195Z,76.71
2019-04-26T08:38:52.446Z,75.80
2019-04-26T08:39:44.564Z,75.80
2019-04-26T08:40:08.759Z,75.79
2019-04-26T08:40:45.019Z,75.87
2019-04-26T08:41:23.463Z,75.19
2019-04-26T08:42:01.708Z,75.14
2019-04-26T08:42:45.482Z,75.41
2019-04-26T08:43:40.317Z,75.62
2019-04-26T08:44:28.631Z,75.58
2019-04-26T08:45:15.231Z,75.54
2019-04-26T08:46:13.074Z,75.54
2019-04-26T08:47:00.744Z,76.45
2019-04-26T08:48:00.124Z,76.05
2019-04-26T08:48:44.235Z,76.05
2019-04-26T08:49:39.164Z,75.52
2019-04-26T08:50:22.231Z,75.84
2019-04-26T08:50:59.733Z,74.76
2019-04-26T08:51:37.835Z,75.37
2019-04-26T08:52:16.736Z,75.95
2019-04-26T08:52:57.830Z,75.71
2019-04-26T08:53:35.118Z,75.71
2019-04-26T08:54:18.614Z,75.75
2019-04-26T08:54:56.549Z,76.14
2019-04-26T08:55:35.261Z,75.64
2019-04-26T08:56:15.299Z,75.64
2019-04-26T08:56:58.027Z,75.59
2019-04-26T08:57:37.249Z,75.60
2019-04-26T08:58:16.050Z,76.29
2019-04-26T08:58:55.588Z,76.29
2019-04-26T08:59:35.574Z,77.08
2019-04-26T09:00:27.150Z,76.93
2019-04-26T09:01:16.009Z,77.77
2019-04-26T09:02:02.508Z,78.46
2019-04-26T09:03:11.651Z,78.11
2019-04-26T09:03:55.964Z,77.22
2019-04-26T09:04:55.830Z,76.39
2019-04-26T09:05:53.039Z,76.49
2019-04-26T09:06:44.436Z,75.92
2019-04-26T09:07:26.138Z,75.91
2019-04-26T09:08:04.014Z,76.60
2019-04-26T09:08:43.447Z,75.66
2019-04-26T09:09:24.367Z,75.75
2019-04-26T09:10:10.746Z,75.56
2019-04-26T09:10:43.243Z,75.56
2019-04-26T09:11:26.437Z,75.95
2019-04-26T09:12:03.941Z,76.06
2019-04-26T09:12:42.055Z,76.17
2019-04-26T09:13:19.699Z,76.60
2019-04-26T09:13:58.210Z,75.89
2019-04-26T09:14:36.739Z,75.89
2019-04-26T09:15:15.347Z,75.75
2019-04-26T09:16:15.192Z,75.48
2019-04-26T09:16:51.059Z,75.30
2019-04-26T09:17:27.730Z,75.83
2019-04-26T09:18:06.037Z,75.75
2019-04-26T09:18:43.980Z,75.77
2019-04-26T09:19:19.199Z,75.62
2019-04-26T09:19:58.021Z,75.98
2019-04-26T09:20:32.283Z,75.36
2019-04-26T09:21:08.282Z,75.74
2019-04-26T09:21:51.767Z,75.48
2019-04-26T09:22:34.694Z,75.33
2019-04-26T09:23:39.499Z,75.74
2019-04-26T09:24:31.766Z,75.74
2019-04-26T09:25:22.756Z,75.22
2019-04-26T09:26:00.946Z,75.43
2019-04-26T09:26:48.523Z,76.11
2019-04-26T09:27:30.954Z,75.25
2019-04-26T09:28:11.694Z,76.12
2019-04-26T09:29:04.557Z,76.23
2019-04-26T09:29:50.046Z,75.83
2019-04-26T09:30:47.550Z,75.94
2019-04-26T09:31:29.981Z,75.66
2019-04-26T09:32:24.206Z,74.83
2019-04-26T09:33:15.231Z,74.64
2019-04-26T09:33:54.805Z,74.69
2019-04-26T09:34:31.060Z,72.87
2019-04-26T09:35:06.856Z,73.01
2019-04-26T09:35:42.761Z,73.57
2019-04-26T09:36:18.941Z,73.94
2019-04-26T09:36:54.413Z,73.85
2019-04-26T09:37:30.692Z,73.17
2019-04-26T09:38:06.153Z,72.75
2019-04-26T09:38:41.592Z,72.29
2019-04-26T09:39:17.336Z,71.63
2019-04-26T09:39:53.359Z,71.63
2019-04-26T09:40:28.889Z,71.40
2019-04-26T09:41:04.403Z,71.41
2019-04-26T09:41:40.554Z,71.45
2019-04-26T09:42:29.640Z,71.45
2019-04-26T09:43:16.567Z,70.71
2019-04-26T09:43:58.952Z,71.16
2019-04-26T09:44:51.585Z,71.90
2019-04-26T09:46:01.428Z,72.53
2019-04-26T09:47:05.788Z,71.40
2019-04-26T09:47:50.662Z,71.75
2019-04-26T09:48:36.924Z,71.96
2019-04-26T09:49:22.431Z,70.97
2019-04-26T09:50:22.004Z,70.97
2019-04-26T09:50:57.822Z,70.82
2019-04-26T09:51:34.870Z,70.76
2019-04-26T09:52:18.438Z,71.29
2019-04-26T09:52:54.020Z,72.21
2019-04-26T09:53:29.873Z,72.17
2019-04-26T09:54:05.819Z,72.20
2019-04-26T09:54:41.291Z,72.56
2019-04-26T09:55:16.840Z,71.92
2019-04-26T09:55:52.413Z,71.16
2019-04-26T09:56:28.008Z,71.35
2019-04-26T09:57:04.043Z,71.35
2019-04-26T09:57:40.017Z,71.10
2019-04-26T09:58:16.481Z,70.37
2019-04-26T09:58:51.975Z,70.37
2019-04-26T09:59:27.580Z,71.59
2019-04-26T10:00:04.066Z,71.99
2019-04-26T10:00:39.862Z,71.99
2019-04-26T10:01:15.301Z,71.70
2019-04-26T10:01:51.052Z,71.42
2019-04-26T10:02:29.511Z,71.57
2019-04-26T10:03:05.398Z,71.57
2019-04-26T10:03:41.000Z,71.48
2019-04-26T10:04:16.543Z,69.45
2019-04-26T10:04:52.063Z,69.45
2019-04-26T10:05:27.539Z,70.19
2019-04-26T10:06:03.365Z,70.87
2019-04-26T10:06:39.545Z,69.84
2019-04-26T10:07:15.003Z,70.79
2019-04-26T10:07:50.795Z,70.56
2019-04-26T10:08:26.252Z,70.14
2019-04-26T10:09:01.788Z,70.13
2019-04-26T10:09:37.252Z,70.58
2019-04-26T10:10:22.772Z,71.94
2019-04-26T10:10:51.773Z,72.16
2019-04-26T10:11:31.686Z,71.61
2019-04-26T10:12:18.112Z,71.91
2019-04-26T10:13:31.022Z,72.03
2019-04-26T10:14:12.957Z,71.75
2019-04-26T10:14:53.084Z,71.48
2019-04-26T10:16:02.486Z,71.24
2019-04-26T10:16:54.881Z,71.39
2019-04-26T10:17:32.512Z,70.84
2019-04-26T10:18:08.319Z,72.33
2019-04-26T10:18:46.912Z,71.04
2019-04-26T10:19:37.028Z,71.04
2019-04-26T10:20:13.161Z,71.72
2019-04-26T10:20:48.624Z,71.69
2019-04-26T10:21:27.396Z,71.37
2019-04-26T10:22:02.924Z,71.37
2019-04-26T10:22:38.689Z,70.92
2019-04-26T10:23:14.617Z,71.17
2019-04-26T10:23:50.275Z,71.48
2019-04-26T10:24:25.944Z,71.76
2019-04-26T10:25:02.296Z,71.19